Time;durP1;ratioP1;P1;durP2;ratioP2;P2;SDS_P1;SDS_P2;PMS_P1;PMS_P2;Temp;Humidity;BMP_temperature;BMP_pressure;BME280_temperature;BME280_humidity;BME280_pressure;Samples;Min_cycle;Max_cycle;Signal;HPM_P1;HPM_P2
2023/04/16 00:01:24;;;;;;;1999.90;999.90;;;;;;;5.97;100.00;93934.31;5008010;28;20205;-63
2023/04/16 00:03:49;;;;;;;1999.90;999.90;;;;;;;6.01;100.00;93924.22;5007700;28;20213;-63
2023/04/16 00:06:15;;;;;;;1999.90;999.90;;;;;;;6.01;100.00;93924.22;5008005;28;20202;-63
2023/04/16 00:08:42;;;;;;;1999.90;999.90;;;;;;;5.96;100.00;93938.19;5007402;28;20201;-63
2023/04/16 00:11:07;;;;;;;1999.90;999.90;;;;;;;5.96;100.00;93928.13;5007685;28;20370;-65
2023/04/16 00:13:33;;;;;;;1999.90;999.90;;;;;;;5.94;100.00;93930.47;5007629;28;20529;-63
2023/04/16 00:15:58;;;;;;;1999.90;999.90;;;;;;;6.01;100.00;93935.03;5007402;28;20237;-64
2023/04/16 00:18:24;;;;;;;1999.90;999.90;;;;;;;5.94;100.00;93940.56;5007478;28;20214;-63
2023/04/16 00:20:49;;;;;;;1999.90;999.90;;;;;;;5.94;100.00;93930.47;5007254;28;20201;-63
2023/04/16 00:23:15;;;;;;;1999.90;999.90;;;;;;;5.86;100.00;93942.59;5007617;28;20258;-62
2023/04/16 00:25:41;;;;;;;1999.90;999.90;;;;;;;5.81;100.00;93942.28;5007275;28;20199;-63
2023/04/16 00:28:07;;;;;;;1999.90;999.90;;;;;;;5.81;100.00;93942.28;5007622;28;20575;-63
2023/04/16 00:30:33;;;;;;;1999.90;999.90;;;;;;;5.80;100.00;93941.47;5007881;28;20211;-63
2023/04/16 00:32:58;;;;;;;1999.90;999.90;;;;;;;5.77;100.00;93941.53;5007706;28;20170;-63
2023/04/16 00:35:24;;;;;;;1999.90;999.90;;;;;;;5.82;100.00;93941.09;5007536;28;20214;-62
2023/04/16 00:37:49;;;;;;;1999.90;999.90;;;;;;;5.79;100.00;93934.53;5007443;28;20225;-62
2023/04/16 00:40:15;;;;;;;1999.90;999.90;;;;;;;5.80;100.00;93935.31;5007354;28;20208;-62
2023/04/16 00:42:40;;;;;;;1999.90;999.90;;;;;;;5.74;100.00;93942.34;5007060;28;20202;-62
2023/04/16 00:45:06;;;;;;;1999.90;999.90;;;;;;;5.74;100.00;93940.41;5007483;28;20205;-62
2023/04/16 00:47:32;;;;;;;1999.90;999.90;;;;;;;5.72;100.00;93940.06;5006888;28;20218;-62
2023/04/16 00:49:58;;;;;;;1999.90;999.90;;;;;;;5.71;100.00;93941.22;5006893;28;20203;-62
2023/04/16 00:52:24;;;;;;;1999.90;999.90;;;;;;;5.72;100.00;93940.06;5006869;28;20218;-62
2023/04/16 00:54:51;;;;;;;1999.90;999.90;;;;;;;5.76;100.00;93942.72;5008496;28;20213;-62
2023/04/16 00:57:19;;;;;;;1999.90;999.90;;;;;;;5.68;100.00;93954.84;5010608;28;20208;-61
2023/04/16 00:59:45;;;;;;;1999.90;999.90;;;;;;;5.75;100.00;93949.28;5010738;28;20196;-61
2023/04/16 01:02:11;;;;;;;1999.90;999.90;;;;;;;5.77;100.00;93946.97;5010552;28;20181;-62
2023/04/16 01:04:36;;;;;;;1999.90;999.90;;;;;;;5.72;100.00;93955.56;5011020;28;20212;-62
2023/04/16 01:07:02;;;;;;;1999.90;999.90;;;;;;;5.70;100.00;93952.47;5010766;28;20212;-61
2023/04/16 01:09:27;;;;;;;1999.90;999.90;;;;;;;5.75;100.00;93943.88;5010879;28;20206;-61
2023/04/16 01:11:52;;;;;;;1999.90;999.90;;;;;;;5.72;100.00;93953.59;5010695;28;20212;-61
2023/04/16 01:14:18;;;;;;;1999.90;999.90;;;;;;;5.79;100.00;93950.03;5010364;28;20217;-61
2023/04/16 01:16:43;;;;;;;1999.90;999.90;;;;;;;5.75;100.00;93966.31;5010113;28;20204;-62
2023/04/16 01:19:08;;;;;;;1999.90;999.90;;;;;;;5.79;100.00;93960.88;5010277;28;20232;-61
2023/04/16 01:21:34;;;;;;;1999.90;999.90;;;;;;;5.80;100.00;93970.53;5010229;28;20243;-61
2023/04/16 01:24:03;;;;;;;1999.90;999.90;;;;;;;5.77;100.00;93968.63;5010009;28;20224;-61
2023/04/16 01:26:29;;;;;;;1999.90;999.90;;;;;;;5.74;100.00;93974.84;5009906;28;20234;-61
2023/04/16 01:28:55;;;;;;;1999.90;999.90;;;;;;;5.74;100.00;93977.56;5010435;28;20194;-61
2023/04/16 01:31:20;;;;;;;1999.90;999.90;;;;;;;5.79;100.00;93977.13;5009948;28;20233;-61
2023/04/16 01:33:45;;;;;;;1999.90;999.90;;;;;;;5.84;100.00;93976.69;5010316;28;20202;-61
2023/04/16 01:36:11;;;;;;;1999.90;999.90;;;;;;;5.81;100.00;93991.81;5010068;28;20266;-62
2023/04/16 01:38:36;;;;;;;1999.90;999.90;;;;;;;5.84;100.00;93988.28;5010289;28;20370;-62
2023/04/16 01:41:01;;;;;;;1999.90;999.90;;;;;;;5.84;100.00;93990.22;5010176;28;20265;-61
2023/04/16 01:43:27;;;;;;;1999.90;999.90;;;;;;;5.85;100.00;93997.16;5010120;28;20245;-61
2023/04/16 01:46:09;;;;;;;1999.90;999.90;;;;;;;5.91;100.00;93995.56;5009796;28;20202;-61
2023/04/16 01:48:35;;;;;;;1999.90;999.90;;;;;;;5.83;100.00;93999.53;5009861;28;20197;-61
2023/04/16 01:51:00;;;;;;;1999.90;999.90;;;;;;;5.83;100.00;94000.28;5009923;28;20236;-61
2023/04/16 01:53:25;;;;;;;1999.90;999.90;;;;;;;5.87;100.00;94000.25;5009793;28;20241;-60
2023/04/16 01:55:51;;;;;;;1999.90;999.90;;;;;;;5.87;100.00;94001.00;5010052;28;20202;-60
2023/04/16 01:58:16;;;;;;;1999.90;999.90;;;;;;;5.87;100.00;94005.66;5009740;28;20205;-61
2023/04/16 02:00:41;;;;;;;1999.90;999.90;;;;;;;5.86;100.00;94018.44;5009486;28;20185;-61
2023/04/16 02:03:07;;;;;;;1999.90;999.90;;;;;;;5.85;100.00;94013.44;5009485;28;20208;-61
2023/04/16 02:05:32;;;;;;;1999.90;999.90;;;;;;;5.87;100.00;94016.50;5009156;28;20221;-61
2023/04/16 02:07:58;;;;;;;1999.90;999.90;;;;;;;5.83;100.00;94021.94;5008950;28;20197;-61
2023/04/16 02:10:23;;;;;;;1999.90;999.90;;;;;;;5.88;100.00;94018.03;5009177;28;20199;-61
2023/04/16 02:12:48;;;;;;;1999.90;999.90;;;;;;;5.84;100.00;94023.50;5009190;28;20202;-62
2023/04/16 02:15:15;;;;;;;1999.90;999.90;;;;;;;5.86;100.00;94031.19;5009625;28;20241;-61
2023/04/16 02:17:40;;;;;;;1999.90;999.90;;;;;;;5.87;100.00;94044.34;5009089;28;20279;-61
2023/04/16 02:20:08;;;;;;;1999.90;999.90;;;;;;;5.93;100.00;94041.94;5009411;28;20217;-60
2023/04/16 02:22:33;;;;;;;1999.90;999.90;;;;;;;5.86;100.00;94040.09;5009198;28;20219;-60
2023/04/16 02:24:59;;;;;;;1999.90;999.90;;;;;;;5.89;100.00;94041.22;5009427;28;20384;-60
2023/04/16 02:27:24;;;;;;;1999.90;999.90;;;;;;;5.92;100.00;94041.19;5009094;28;20198;-60
2023/04/16 02:29:50;;;;;;;1999.90;999.90;;;;;;;5.95;100.00;94045.03;5008947;28;20221;-60
2023/04/16 02:32:15;;;;;;;1999.90;999.90;;;;;;;5.96;100.00;94049.25;5009353;28;20233;-60
2023/04/16 02:34:41;;;;;;;1999.90;999.90;;;;;;;5.94;100.00;94057.06;5009433;28;20456;-61
2023/04/16 02:37:07;;;;;;;1999.90;999.90;;;;;;;5.89;100.00;94058.25;5009059;28;20196;-61
2023/04/16 02:39:32;;;;;;;1999.90;999.90;;;;;;;5.93;100.00;94064.41;5008789;28;20281;-60
2023/04/16 02:41:58;;;;;;;1999.90;999.90;;;;;;;5.92;100.00;94062.88;5008676;28;20205;-60
2023/04/16 02:44:23;;;;;;;1999.90;999.90;;;;;;;5.94;100.00;94067.88;5008694;28;20198;-60
2023/04/16 02:46:48;;;;;;;1999.90;999.90;;;;;;;5.91;100.00;94077.56;5008775;28;20202;-60
2023/04/16 02:49:14;;;;;;;1999.90;999.90;;;;;;;5.87;100.00;94076.09;5008613;28;20198;-60
2023/04/16 02:51:39;;;;;;;1999.90;999.90;;;;;;;5.87;100.00;94076.09;5008496;28;20197;-60
2023/04/16 02:54:04;;;;;;;1999.90;999.90;;;;;;;5.90;100.00;94080.72;5008635;28;20293;-59
2023/04/16 02:56:30;;;;;;;1999.90;999.90;;;;;;;5.86;100.00;94082.66;5008385;28;20216;-60
2023/04/16 02:58:55;;;;;;;1999.90;999.90;;;;;;;5.91;100.00;94076.81;5008422;28;20233;-60
2023/04/16 03:01:20;;;;;;;1999.90;999.90;;;;;;;5.93;100.00;94080.66;5008818;28;20224;-60
2023/04/16 03:03:46;;;;;;;1999.90;999.90;;;;;;;5.96;100.00;94084.47;5007868;28;20190;-60
2023/04/16 03:06:11;;;;;;;1999.90;999.90;;;;;;;5.93;100.00;94086.06;5008658;28;20197;-60
2023/04/16 03:08:36;;;;;;;1999.90;999.90;;;;;;;5.94;100.00;94090.31;5008642;28;20245;-60
2023/04/16 03:11:02;;;;;;;1999.90;999.90;;;;;;;5.94;100.00;94087.59;5008926;28;20197;-60
2023/04/16 03:13:27;;;;;;;1999.90;999.90;;;;;;;5.95;100.00;94093.78;5008472;28;20202;-60
2023/04/16 03:15:53;;;;;;;1999.90;999.90;;;;;;;5.95;100.00;94093.78;5008291;28;20243;-59
2023/04/16 03:18:18;;;;;;;1999.90;999.90;;;;;;;5.98;100.00;94093.00;5007283;28;20265;-61
2023/04/16 03:20:43;;;;;;;1999.90;999.90;;;;;;;5.95;100.00;94102.69;5008169;28;20226;-59
2023/04/16 03:23:09;;;;;;;1999.90;999.90;;;;;;;5.92;100.00;94110.84;5008111;28;20205;-59
2023/04/16 03:25:34;;;;;;;1999.90;999.90;;;;;;;5.93;100.00;94115.88;5008088;28;20272;-59
2023/04/16 03:27:59;;;;;;;1999.90;999.90;;;;;;;5.93;100.00;94115.09;5007927;28;20217;-60
2023/04/16 03:30:25;;;;;;;1999.90;999.90;;;;;;;5.91;100.00;94118.19;5008109;28;20426;-59
2023/04/16 03:32:50;;;;;;;1999.90;999.90;;;;;;;5.89;100.00;94130.63;5008239;28;20416;-59
2023/04/16 03:35:16;;;;;;;1999.90;999.90;;;;;;;5.86;100.00;94134.91;5008104;28;20209;-59
2023/04/16 03:37:41;;;;;;;1999.90;999.90;;;;;;;5.91;100.00;94141.84;5007730;28;20268;-60
2023/04/16 03:40:07;;;;;;;1999.90;999.90;;;;;;;5.89;100.00;94153.06;5008219;28;20201;-60
2023/04/16 03:42:32;;;;;;;1999.90;999.90;;;;;;;5.96;100.00;94149.50;5007727;28;20209;-60
2023/04/16 03:44:58;;;;;;;1999.90;999.90;;;;;;;5.94;100.00;94162.69;5007771;28;20391;-59
2023/04/16 03:47:23;;;;;;;1999.90;999.90;;;;;;;5.92;100.00;94165.03;5007882;28;20252;-60
2023/04/16 03:49:49;;;;;;;1999.90;999.90;;;;;;;5.87;100.00;94177.06;5007790;28;20202;-60
2023/04/16 03:52:15;;;;;;;1999.90;999.90;;;;;;;5.92;100.00;94173.94;5007757;28;20202;-59
2023/04/16 03:54:40;;;;;;;1999.90;999.90;;;;;;;5.88;100.00;94196.81;5007482;28;20291;-61
2023/04/16 03:57:05;;;;;;;1999.90;999.90;;;;;;;5.93;100.00;94199.06;5008042;28;20202;-60
2023/04/16 03:59:31;;;;;;;1999.90;999.90;;;;;;;5.90;100.00;94210.72;5008139;28;20197;-60
2023/04/16 04:01:56;;;;;;;1999.90;999.90;;;;;;;5.81;100.00;94211.19;5007716;28;20380;-60
2023/04/16 04:04:21;;;;;;;1999.90;999.90;;;;;;;5.83;100.00;94208.09;5007580;28;20240;-61
2023/04/16 04:06:47;;;;;;;1999.90;999.90;;;;;;;5.85;100.00;94208.44;5007863;28;20192;-60
2023/04/16 04:09:13;;;;;;;1999.90;999.90;;;;;;;5.86;100.00;94215.38;5007894;28;20259;-60
2023/04/16 04:11:39;;;;;;;1999.90;999.90;;;;;;;5.90;100.00;94216.16;5007711;28;20197;-62
2023/04/16 04:14:04;;;;;;;1999.90;999.90;;;;;;;5.91;100.00;94206.84;5007867;28;20281;-60
2023/04/16 04:16:33;;;;;;;1999.90;999.90;;;;;;;5.87;100.00;94211.53;5007420;28;20415;-60
2023/04/16 04:18:59;;;;;;;1999.90;999.90;;;;;;;5.85;100.00;94197.59;5007329;28;20401;-60
2023/04/16 04:21:26;;;;;;;1999.90;999.90;;;;;;;5.86;100.00;94201.84;5007502;28;20199;-60
2023/04/16 04:23:51;;;;;;;1999.90;999.90;;;;;;;5.77;100.00;94201.53;5007410;28;20269;-59
2023/04/16 04:26:17;;;;;;;1999.90;999.90;;;;;;;5.73;100.00;94182.63;5007376;28;20196;-60
2023/04/16 04:28:42;;;;;;;1999.90;999.90;;;;;;;5.77;100.00;94169.03;5007773;28;20229;-60
2023/04/16 04:31:07;;;;;;;1999.90;999.90;;;;;;;5.75;100.00;94160.53;5011110;28;20224;-60
2023/04/16 04:33:33;;;;;;;1999.90;999.90;;;;;;;5.74;100.00;94151.66;5011466;28;20201;-61
2023/04/16 04:35:58;;;;;;;1999.90;999.90;;;;;;;5.82;100.00;94138.81;5011701;28;20173;-61
2023/04/16 04:38:24;;;;;;;1999.90;999.90;;;;;;;5.79;100.00;94136.91;5011131;28;20201;-62
2023/04/16 04:40:53;;;;;;;1999.90;999.90;;;;;;;5.79;100.00;94117.94;5011384;28;20193;-62
2023/04/16 04:43:19;;;;;;;1999.90;999.90;;;;;;;5.82;100.00;94111.72;5011262;28;20196;-63
2023/04/16 04:45:45;;;;;;;1999.90;999.90;;;;;;;5.83;100.00;94107.88;5011207;28;20194;-62
2023/04/16 04:48:10;;;;;;;1999.90;999.90;;;;;;;5.84;100.00;94109.41;5010862;28;20240;-62
2023/04/16 04:50:36;;;;;;;1999.90;999.90;;;;;;;5.85;100.00;94100.09;5010897;28;20217;-61
2023/04/16 04:53:01;;;;;;;1999.90;999.90;;;;;;;5.88;100.00;94100.06;5010907;28;20265;-61
2023/04/16 04:55:27;;;;;;;1999.90;999.90;;;;;;;5.88;100.00;94091.16;5010870;28;20434;-60
2023/04/16 04:57:52;;;;;;;1999.90;999.90;;;;;;;5.85;100.00;94094.69;5010869;28;20202;-60
2023/04/16 05:00:17;;;;;;;1999.90;999.90;;;;;;;5.89;100.00;94090.00;5010769;28;20197;-60
2023/04/16 05:02:43;;;;;;;1999.90;999.90;;;;;;;5.84;100.00;94087.72;5010594;28;20194;-62
2023/04/16 05:05:08;;;;;;;1999.90;999.90;;;;;;;5.87;100.00;94076.84;5010460;28;20206;-61
2023/04/16 05:07:34;;;;;;;1999.90;999.90;;;;;;;5.91;100.00;94084.94;5010964;28;20178;-60
2023/04/16 05:09:59;;;;;;;1999.90;999.90;;;;;;;5.95;100.00;94082.97;5010850;28;20217;-62
2023/04/16 05:12:25;;;;;;;1999.90;999.90;;;;;;;5.91;100.00;94093.81;5010688;28;20560;-62
2023/04/16 05:14:50;;;;;;;1999.90;999.90;;;;;;;5.93;100.00;94079.88;5010183;28;20277;-63
2023/04/16 05:17:15;;;;;;;1999.90;999.90;;;;;;;5.98;100.00;94082.91;5010384;28;20188;-60
2023/04/16 05:19:41;;;;;;;1999.90;999.90;;;;;;;6.03;100.00;94084.41;5009855;28;20199;-61
2023/04/16 05:22:06;;;;;;;1999.90;999.90;;;;;;;6.04;100.00;94083.22;5010283;28;20197;-60
2023/04/16 05:24:32;;;;;;;1999.90;999.90;;;;;;;6.09;100.00;94082.78;5010251;28;20247;-60
2023/04/16 05:26:57;;;;;;;1999.90;999.90;;;;;;;6.04;100.00;94086.72;5010442;28;20190;-60
2023/04/16 05:29:22;;;;;;;1999.90;999.90;;;;;;;6.03;100.00;94092.53;5010244;28;20197;-60
2023/04/16 05:31:48;;;;;;;1999.90;999.90;;;;;;;6.05;100.00;94104.50;5010363;28;20372;-59
2023/04/16 05:34:13;;;;;;;1999.90;999.90;;;;;;;6.09;100.00;94105.22;5010187;28;20228;-61
2023/04/16 05:36:38;;;;;;;1999.90;999.90;;;;;;;6.06;100.00;94105.28;5009827;28;20194;-60
2023/04/16 05:39:04;;;;;;;1999.90;999.90;;;;;;;5.99;100.00;94121.59;5010610;28;20166;-59
2023/04/16 05:41:30;;;;;;;1999.90;999.90;;;;;;;6.00;100.00;94128.56;5009269;28;20251;-58
2023/04/16 05:43:55;;;;;;;1999.90;999.90;;;;;;;6.03;100.00;94125.03;5009717;28;20201;-59
2023/04/16 05:46:20;;;;;;;1999.90;999.90;;;;;;;6.04;100.00;94126.56;5010272;28;20198;-59
2023/04/16 05:48:46;;;;;;;1999.90;999.90;;;;;;;6.06;100.00;94132.38;5009674;28;20216;-60
2023/04/16 05:51:11;;;;;;;1999.90;999.90;;;;;;;6.09;100.00;94132.31;5009671;28;20205;-59
2023/04/16 05:53:36;;;;;;;1999.90;999.90;;;;;;;6.05;100.00;94142.44;5009592;28;20275;-60
2023/04/16 05:56:02;;;;;;;1999.90;999.90;;;;;;;6.03;100.00;94154.84;5009736;28;20206;-59
2023/04/16 05:58:27;;;;;;;1999.90;999.90;;;;;;;6.01;100.00;94160.66;5009921;28;20355;-59
2023/04/16 06:00:53;;;;;;;1999.90;999.90;;;;;;;6.09;100.00;94166.78;5009609;28;20195;-59
2023/04/16 06:03:18;;;;;;;1999.90;999.90;;;;;;;6.09;100.00;94180.34;5009750;28;20218;-59
2023/04/16 06:05:43;;;;;;;1999.90;999.90;;;;;;;6.14;100.00;94177.16;5009393;28;20198;-59
2023/04/16 06:08:09;;;;;;;1999.90;999.90;;;;;;;6.15;100.00;94190.31;5009253;28;20202;-60
2023/04/16 06:10:38;;;;;;;1999.90;999.90;;;;;;;6.18;100.00;94210.41;5009943;28;20203;-60
2023/04/16 06:13:03;;;;;;;1999.90;999.90;;;;;;;6.20;100.00;94208.84;5009477;28;20205;-59
2023/04/16 06:15:28;;;;;;;1999.90;999.90;;;;;;;6.29;100.00;94219.19;5009230;28;20219;-60
2023/04/16 06:17:54;;;;;;;1999.90;999.90;;;;;;;6.31;100.00;94230.41;5009234;28;20202;-60
2023/04/16 06:20:20;;;;;;;1999.90;999.90;;;;;;;6.29;100.00;94238.19;5008987;28;20225;-59
2023/04/16 06:22:45;;;;;;;1999.90;999.90;;;;;;;6.34;100.00;94257.47;5009481;28;20218;-59
2023/04/16 06:25:11;;;;;;;1999.90;999.90;;;;;;;6.37;100.00;94280.28;5009122;28;20230;-60
2023/04/16 06:27:36;;;;;;;1999.90;999.90;;;;;;;6.44;100.00;94289.13;5008881;28;20381;-60
2023/04/16 06:30:01;;;;;;;1999.90;999.90;;;;;;;6.55;100.00;94310.69;5008822;28;20197;-60
2023/04/16 06:32:27;;;;;;;1999.90;999.90;;;;;;;6.61;100.00;94314.53;5008942;28;20271;-58
2023/04/16 06:34:52;;;;;;;1999.90;999.90;;;;;;;6.67;100.00;94340.03;5008593;28;20336;-59
2023/04/16 06:37:18;;;;;;;1999.90;999.90;;;;;;;6.80;100.00;94343.75;5008849;28;20198;-59
2023/04/16 06:39:43;;;;;;;1999.90;999.90;;;;;;;6.65;100.00;94367.56;5008562;28;20179;-60
2023/04/16 06:42:08;;;;;;;1999.90;999.90;;;;;;;6.82;100.00;94382.88;5008957;28;20198;-60
2023/04/16 06:44:34;;;;;;;1999.90;999.90;;;;;;;6.91;100.00;94409.53;5008752;28;20233;-59
2023/04/16 06:47:00;;;;;;;1999.90;999.90;;;;;;;6.95;100.00;94421.13;5008542;28;20202;-59
2023/04/16 06:49:25;;;;;;;1999.90;999.90;;;;;;;6.99;100.00;94454.41;5008991;28;20264;-60
2023/04/16 06:51:50;;;;;;;1999.90;999.90;;;;;;;7.04;100.00;94472.22;5008182;28;20205;-59
2023/04/16 06:54:16;;;;;;;1999.90;999.90;;;;;;;7.08;100.00;94495.44;5008461;28;20212;-59
2023/04/16 06:56:41;;;;;;;1999.90;999.90;;;;;;;7.08;100.00;94510.94;5008961;28;20217;-59
2023/04/16 06:59:06;;;;;;;1999.90;999.90;;;;;;;7.16;100.00;94537.63;5008079;28;20375;-59
2023/04/16 07:01:32;;;;;;;1999.90;999.90;;;;;;;7.18;100.00;94553.50;5008294;28;20384;-57
2023/04/16 07:03:58;;;;;;;1999.90;999.90;;;;;;;7.11;100.00;94576.06;5008225;28;20214;-59
2023/04/16 07:06:23;;;;;;;1999.90;999.90;;;;;;;7.17;100.00;94588.03;5008622;28;20195;-59
2023/04/16 07:08:49;;;;;;;1999.90;999.90;;;;;;;7.15;100.00;94614.81;5008672;28;20190;-61
2023/04/16 07:11:14;;;;;;;1999.90;999.90;;;;;;;7.21;100.00;94624.06;5008298;28;20232;-58
2023/04/16 07:13:40;;;;;;;1999.90;999.90;;;;;;;7.33;100.00;94634.44;5008532;28;20190;-58
2023/04/16 07:16:05;;;;;;;1999.90;999.90;;;;;;;7.22;100.00;94658.19;5008473;28;20189;-58
2023/04/16 07:18:31;;;;;;;1999.90;999.90;;;;;;;7.12;100.00;94686.19;5007983;28;20198;-56
2023/04/16 07:20:56;;;;;;;1999.90;999.90;;;;;;;7.19;100.00;94694.28;5008321;28;20230;-59
2023/04/16 07:23:22;;;;;;;1999.90;999.90;;;;;;;7.33;100.00;94694.19;5007881;28;20186;-59
2023/04/16 07:25:47;;;;;;;1999.90;999.90;;;;;;;7.45;100.00;94704.56;5007891;28;20187;-60
2023/04/16 07:28:15;;;;;;;1999.90;999.90;;;;;;;7.49;100.00;94727.03;5008374;28;20195;-59
2023/04/16 07:30:40;;;;;;;1999.90;999.90;;;;;;;7.74;100.00;94738.50;5008087;28;20218;-57
2023/04/16 07:33:06;;;;;;;1999.90;999.90;;;;;;;7.89;100.00;94758.16;5007811;28;20187;-58
2023/04/16 07:35:32;;;;;;;1999.90;999.90;;;;;;;7.98;100.00;94772.84;5007737;28;20218;-57
2023/04/16 07:37:57;;;;;;;1999.90;999.90;;;;;;;8.00;100.00;94796.91;5007878;28;20221;-54
2023/04/16 07:40:23;;;;;;;1999.90;999.90;;;;;;;7.95;100.00;94822.59;5007942;28;20190;-57
2023/04/16 07:42:49;;;;;;;1999.90;999.90;;;;;;;8.12;100.00;94837.97;5007706;28;20171;-54
2023/04/16 07:45:14;;;;;;;1999.90;999.90;;;;;;;8.20;100.00;94847.63;5007704;28;20195;-57
2023/04/16 07:47:40;;;;;;;1999.90;999.90;;;;;;;8.22;100.00;94867.06;5007969;28;20195;-57
2023/04/16 07:50:06;;;;;;;1999.90;999.90;;;;;;;8.19;100.00;94886.88;5007767;28;20195;-58
2023/04/16 07:52:31;;;;;;;1999.90;999.90;;;;;;;8.22;100.00;94909.81;5007757;28;20191;-62
2023/04/16 07:54:57;;;;;;;1999.90;999.90;;;;;;;8.19;100.00;94916.03;5007300;28;20213;-58
2023/04/16 07:57:22;;;;;;;1999.90;999.90;;;;;;;8.13;100.00;94945.59;5007510;28;20254;-56
2023/04/16 07:59:47;;;;;;;1999.90;999.90;;;;;;;8.10;100.00;94957.25;5007708;28;20198;-58
2023/04/16 08:02:15;;;;;;;1999.90;999.90;;;;;;;8.16;100.00;94955.66;5007435;28;20377;-54
2023/04/16 08:04:41;;;;;;;1999.90;999.90;;;;;;;8.16;100.00;94961.09;5008911;28;20203;-52
2023/04/16 08:07:07;;;;;;;1999.90;999.90;;;;;;;8.16;100.00;94977.41;5011504;28;20228;-57
2023/04/16 08:09:34;;;;;;;1999.90;999.90;;;;;;;8.08;100.00;94978.63;5012056;28;20492;-57
2023/04/16 08:12:00;;;;;;;1999.90;999.90;;;;;;;8.13;100.00;94978.22;5012000;28;20187;-56
2023/04/16 08:14:25;;;;;;;1999.90;999.90;;;;;;;8.09;100.00;94972.00;5011791;28;20233;-56
2023/04/16 08:16:51;;;;;;;1999.90;999.90;;;;;;;8.13;100.00;94969.28;5012191;28;20254;-57
2023/04/16 08:19:16;;;;;;;1999.90;999.90;;;;;;;8.20;100.00;94978.16;5011653;28;20230;-55
2023/04/16 08:21:41;;;;;;;1999.90;999.90;;;;;;;8.26;100.00;94987.47;5011207;28;20217;-60
2023/04/16 08:24:07;;;;;;;1999.90;999.90;;;;;;;8.21;100.00;94998.78;5011228;28;20483;-59
2023/04/16 08:26:32;;;;;;;1999.90;999.90;;;;;;;8.37;100.00;95004.50;5011317;28;20193;-57
2023/04/16 08:28:57;;;;;;;1999.90;999.90;;;;;;;8.49;100.00;95009.47;5010966;28;20234;-59
2023/04/16 08:31:23;;;;;;;1999.90;999.90;;;;;;;8.59;100.00;95016.81;5011219;28;20546;-58
2023/04/16 08:33:48;;;;;;;1999.90;999.90;;;;;;;8.65;100.00;95031.56;5010784;28;20270;-59
2023/04/16 08:36:13;;;;;;;1999.90;999.90;;;;;;;8.81;100.00;95028.31;5011227;28;20262;-59
2023/04/16 08:38:39;;;;;;;1999.90;999.90;;;;;;;8.84;100.00;95052.00;5010814;28;20191;-58
2023/04/16 08:41:10;;;;;;;1999.90;999.90;;;;;;;8.86;100.00;95055.88;5011305;28;20194;-56
2023/04/16 08:43:38;;;;;;;1999.90;999.90;;;;;;;9.07;100.00;95060.41;5009978;28;20238;-57
2023/04/16 08:46:04;;;;;;;1999.90;999.90;;;;;;;9.17;100.00;95082.09;5011265;28;20191;-57
2023/04/16 08:48:33;;;;;;;1999.90;999.90;;;;;;;9.32;100.00;95107.28;5011145;28;20192;-58
2023/04/16 08:51:00;;;;;;;1999.90;999.90;;;;;;;9.49;100.00;95117.25;5010661;28;20207;-58
2023/04/16 08:53:35;;;;;;;1999.90;999.90;;;;;;;9.69;100.00;95127.19;5010646;28;20318;-57
2023/04/16 08:56:03;;;;;;;1999.90;999.90;;;;;;;9.79;100.00;95139.97;5010778;28;20421;-57
2023/04/16 08:58:33;;;;;;;1999.90;999.90;;;;;;;9.79;100.00;95167.25;5010809;28;20197;-57
2023/04/16 09:01:01;;;;;;;1999.90;999.90;;;;;;;9.73;100.00;95182.47;5010450;28;20225;-57
2023/04/16 09:03:28;;;;;;;1999.90;999.90;;;;;;;9.81;100.00;95189.41;5010301;28;20204;-58
2023/04/16 09:05:56;;;;;;;1999.90;999.90;;;;;;;9.80;100.00;95208.94;5010314;28;20193;-56
2023/04/16 09:08:21;;;;;;;1999.90;999.90;;;;;;;9.92;100.00;95225.53;5010995;28;20200;-58
2023/04/16 09:10:48;;;;;;;1999.90;999.90;;;;;;;10.34;100.00;95218.19;5010229;28;20290;-57
2023/04/16 09:13:15;;;;;;;1999.90;999.90;;;;;;;10.43;100.00;95224.72;5010694;28;20310;-57
2023/04/16 09:15:42;;;;;;;1999.90;999.90;;;;;;;10.53;100.00;95244.91;5010000;28;20207;-59
2023/04/16 09:18:10;;;;;;;1999.90;999.90;;;;;;;10.70;100.00;95250.16;5010487;28;20377;-54
2023/04/16 09:20:36;;;;;;;1999.90;999.90;;;;;;;10.58;100.00;95256.16;5010410;28;20194;-58
2023/04/16 09:23:01;;;;;;;1999.90;999.90;;;;;;;10.70;100.00;95260.34;5010221;28;20202;-57
2023/04/16 09:25:31;;;;;;;1999.90;999.90;;;;;;;10.62;100.00;95264.28;5009940;28;20421;-54
2023/04/16 09:27:57;;;;;;;1999.90;999.90;;;;;;;10.78;100.00;95265.28;5010535;28;20278;-57
2023/04/16 09:30:24;;;;;;;1999.90;999.90;;;;;;;10.79;100.00;95264.13;5009890;28;20199;-49
2023/04/16 09:32:51;;;;;;;1999.90;999.90;;;;;;;11.01;100.00;95259.19;5010228;28;20195;-56
2023/04/16 09:35:19;;;;;;;1999.90;999.90;;;;;;;11.16;100.00;95266.00;5009609;28;20527;-57
2023/04/16 09:37:57;;;;;;;1999.90;999.90;;;;;;;11.21;100.00;95273.75;5010114;28;20199;-58
2023/04/16 09:40:25;;;;;;;1999.90;999.90;;;;;;;11.20;100.00;95277.66;5010250;28;20190;-54
2023/04/16 09:42:51;;;;;;;1999.90;999.90;;;;;;;11.44;100.00;95279.31;5009737;28;20195;-56
2023/04/16 09:45:16;;;;;;;1999.90;999.90;;;;;;;11.45;100.00;95286.34;5009491;28;20214;-57
2023/04/16 09:47:43;;;;;;;1999.90;999.90;;;;;;;11.34;100.00;95286.47;5009877;28;20222;-58
2023/04/16 09:50:13;;;;;;;1999.90;999.90;;;;;;;11.40;100.00;95286.81;5009741;28;20399;-53
2023/04/16 09:52:38;;;;;;;1999.90;999.90;;;;;;;11.43;100.00;95291.44;5009440;28;20511;-54
2023/04/16 09:55:04;;;;;;;1999.90;999.90;;;;;;;11.49;100.00;95300.72;5009505;28;20291;-54
2023/04/16 09:57:30;;;;;;;1999.90;999.90;;;;;;;11.54;100.00;95303.03;5009935;28;20206;-57
2023/04/16 10:00:07;;;;;;;1999.90;999.90;;;;;;;11.87;100.00;95289.28;5009217;28;20187;-57
2023/04/16 10:02:33;;;;;;;1999.90;999.90;;;;;;;12.00;100.00;95298.47;5009768;28;20275;-53
2023/04/16 10:05:04;;;;;;;1999.90;999.90;;;;;;;11.74;100.00;95312.16;5009353;28;20210;-52
2023/04/16 10:07:34;;;;;;;1999.90;999.90;;;;;;;11.43;100.00;95310.56;5009687;28;20203;-51
2023/04/16 10:10:00;;;;;;;1999.90;999.90;;;;;;;11.25;100.00;95313.53;5009360;28;20270;-58
2023/04/16 10:12:28;;;;;;;1999.90;999.90;;;;;;;10.97;100.00;95310.34;5009172;28;20198;-56
2023/04/16 10:14:54;;;;;;;1999.90;999.90;;;;;;;10.80;100.00;95314.84;5009355;28;20233;-55
2023/04/16 10:17:20;;;;;;;1999.90;999.90;;;;;;;10.59;100.00;95308.81;5009066;28;20205;-55
2023/04/16 10:19:46;;;;;;;1999.90;999.90;;;;;;;10.68;100.00;95306.38;5009403;28;20218;-58
2023/04/16 10:22:12;;;;;;;1999.90;999.90;;;;;;;10.80;100.00;95292.19;5009253;28;20218;-50
2023/04/16 10:24:39;;;;;;;1999.90;999.90;;;;;;;11.10;100.00;95294.97;5008887;28;20233;-55
2023/04/16 10:27:05;;;;;;;1999.90;999.90;;;;;;;11.38;100.00;95298.16;5008862;28;20182;-54
2023/04/16 10:29:31;;;;;;;1999.90;999.90;;;;;;;11.69;100.00;95301.66;5009395;28;20365;-51
2023/04/16 10:31:58;;;;;;;1999.90;999.90;;;;;;;11.75;100.00;95313.69;5009388;28;20194;-53
2023/04/16 10:34:24;;;;;;;1999.90;999.90;;;;;;;11.99;100.00;95318.78;5008708;28;20218;-54
2023/04/16 10:36:51;;;;;;;1999.90;999.90;;;;;;;12.04;100.00;95320.28;5008848;28;20508;-53
2023/04/16 10:39:20;;;;;;;1999.90;999.90;;;;;;;12.38;100.00;95327.19;5008640;28;20197;-53
2023/04/16 10:41:45;;;;;;;1999.90;999.90;;;;;;;12.23;100.00;95325.06;5008620;28;20199;-54
2023/04/16 10:44:11;;;;;;;1999.90;999.90;;;;;;;12.38;100.00;95318.97;5008614;28;20225;-55
2023/04/16 10:46:42;;;;;;;1999.90;999.90;;;;;;;12.03;100.00;95329.69;5008742;28;20194;-55